Yacht Lady — WDA2527 — position and weather

sailwx.info

Track history (hours):
 
Tides and Currents Weather Stations Pressure Air Temp Water Temp Dewpoint Dewpoint Depression Visibility Wind Speed Wind Dir Waves Ship Positions

Yacht Lady

Owner: YACHT LADY LLC, INCLINE VILLAGE, NV. More information available from US FCC via Universal Licensing System and Coast Guard Vessel Documentation Center.

Last reported at 2018-Jun-03 09:28 UTC. Time now 2018-Jun-24 12:58 UTC.
Position N 37°48' W 122°27'.
Warning: this ship's position is 21 days out of date.

; draft 3 m.

Type: Pleasure craft. MMSI: 338309000.

Date/timePositionNaut miles runAvg speedWind from/ knotsBaromVisibWave heightAir tempDewpointWater temp
2018-Jun-03 09:28N 37°48' W 122°27'0 0.0
2018-Jun-03 09:00N 37°48' W 122°27'0 0.0
2018-Jun-03 08:30N 37°48' W 122°27'0 0.0
2018-Jun-03 08:01N 37°48' W 122°27'0 0.0
2018-Jun-03 07:30N 37°48' W 122°27'0 0.0
2018-Jun-03 07:00N 37°48' W 122°27'0 0.0
2018-Jun-03 06:31N 37°48' W 122°27'0 0.0
2018-Jun-03 06:00N 37°48' W 122°27'0 0.0
2018-Jun-03 05:30N 37°48' W 122°27'0 0.0
2018-Jun-03 05:00N 37°48' W 122°27'0 0.0
2018-Jun-03 04:30N 37°48' W 122°27'0 0.0
2018-Jun-03 04:00N 37°48' W 122°27'0 0.0
2018-Jun-03 03:31N 37°48' W 122°27'0 0.0
2018-Jun-03 03:01N 37°48' W 122°27'0 0.0
2018-Jun-03 02:30N 37°48' W 122°27'0 0.0
2018-Jun-02 13:13N 37°48' W 122°27'0 0.0
2018-Jun-02 13:01N 37°48' W 122°27'0 0.0
2018-Jun-02 12:30N 37°48' W 122°27'0 0.0
2018-Jun-02 12:00N 37°48' W 122°27'0 0.0
2018-Jun-02 11:31N 37°48' W 122°27'0 0.0
2018-Jun-02 11:01N 37°48' W 122°27'0 0.0
2018-Jun-02 10:31N 37°48' W 122°27'0 0.0
2018-Jun-02 10:00N 37°48' W 122°27'0 0.0
2018-Jun-02 09:31N 37°48' W 122°27'0 0.0
2018-Jun-02 09:01N 37°48' W 122°27'0 0.0
2018-Jun-02 08:30N 37°48' W 122°27'0 0.0
2018-Jun-02 08:01N 37°48' W 122°27'0 0.0
2018-Jun-02 07:31N 37°48' W 122°27'0 0.0
2018-Jun-02 07:01N 37°48' W 122°27'0 0.0
2018-Jun-02 06:31N 37°48' W 122°27'0 0.0
2018-Jun-02 06:01N 37°48' W 122°27'0 0.0
2018-Jun-02 05:31N 37°48' W 122°27'0 0.0
2018-Jun-02 05:01N 37°48' W 122°27'0 0.0
2018-Jun-02 04:30N 37°48' W 122°27'0 0.0
2018-Jun-02 04:01N 37°48' W 122°27'0 0.0
2018-Jun-02 03:31N 37°48' W 122°27'0 0.0
2018-Jun-02 03:01N 37°48' W 122°27'0 0.0
2018-Jun-02 02:31N 37°48' W 122°27'0 0.0
2018-Jun-02 02:01N 37°48' W 122°27'0 0.0
2018-Jun-02 01:31N 37°48' W 122°27'0 0.0
2018-Jun-02 01:01N 37°48' W 122°27'0 0.0
2018-Jun-02 00:31N 37°48' W 122°27'0 0.0
2018-Jun-02 00:01N 37°48' W 122°27'0 0.2
2018-Jun-01 23:30N 37°48' W 122°27'0 0.0
2018-Jun-01 23:01N 37°48' W 122°27'4 7.0
2018-Jun-01 22:31N 37°52' W 122°25'510.0
2018-Jun-01 22:01N 37°57' W 122°26'12 9.1
2018-Jun-01 20:41N 38°04' W 122°13'1 1.3
2018-Jun-01 19:45N 38°03' W 122°12'510.0
2018-Jun-01 19:16N 38°03' W 122°18'3 9.8
2018-Jun-01 18:56N 38°01' W 122°22'510.6
2018-Jun-01 18:31N 37°58' W 122°26'510.1
2018-Jun-01 18:00N 37°53' W 122°25'5 9.4
2018-Jun-01 17:30N 37°48' W 122°26'0 0.6
2018-Jun-01 17:00N 37°48' W 122°27'0 0.0
2018-Jun-01 16:31N 37°48' W 122°27'0 0.0
2018-Jun-01 16:00N 37°48' W 122°27'0 0.0
2018-Jun-01 15:30N 37°48' W 122°27'0 0.0
2018-Jun-01 15:00N 37°48' W 122°27'  
Track history (hours):
 
Tides and Currents Weather Stations Pressure Air Temp Water Temp Dewpoint Dewpoint Depression Visibility Wind Speed Wind Dir Waves Ship Positions

Yacht Lady

Owner: YACHT LADY LLC, INCLINE VILLAGE, NV. More information available from US FCC via Universal Licensing System and Coast Guard Vessel Documentation Center.

Last reported at 2018-Jun-03 09:28 UTC. Time now 2018-Jun-24 12:58 UTC.
Position N 37°48' W 122°27'.
Warning: this ship's position is 21 days out of date.

; draft 3 m.

Type: Pleasure craft. MMSI: 338309000.

Date/timePositionNaut miles runAvg speedWind from/ knotsBaromVisibWave heightAir tempDewpointWater temp
2018-Jun-03 09:28N 37°48' W 122°27'0 0.0
2018-Jun-03 09:00N 37°48' W 122°27'0 0.0
2018-Jun-03 08:30N 37°48' W 122°27'0 0.0
2018-Jun-03 08:01N 37°48' W 122°27'0 0.0
2018-Jun-03 07:30N 37°48' W 122°27'0 0.0
2018-Jun-03 07:00N 37°48' W 122°27'0 0.0
2018-Jun-03 06:31N 37°48' W 122°27'0 0.0
2018-Jun-03 06:00N 37°48' W 122°27'0 0.0
2018-Jun-03 05:30N 37°48' W 122°27'0 0.0
2018-Jun-03 05:00N 37°48' W 122°27'0 0.0
2018-Jun-03 04:30N 37°48' W 122°27'0 0.0
2018-Jun-03 04:00N 37°48' W 122°27'0 0.0
2018-Jun-03 03:31N 37°48' W 122°27'0 0.0
2018-Jun-03 03:01N 37°48' W 122°27'0 0.0
2018-Jun-03 02:30N 37°48' W 122°27'0 0.0
2018-Jun-02 13:13N 37°48' W 122°27'0 0.0
2018-Jun-02 13:01N 37°48' W 122°27'0 0.0
2018-Jun-02 12:30N 37°48' W 122°27'0 0.0
2018-Jun-02 12:00N 37°48' W 122°27'0 0.0
2018-Jun-02 11:31N 37°48' W 122°27'0 0.0
2018-Jun-02 11:01N 37°48' W 122°27'0 0.0
2018-Jun-02 10:31N 37°48' W 122°27'0 0.0
2018-Jun-02 10:00N 37°48' W 122°27'0 0.0
2018-Jun-02 09:31N 37°48' W 122°27'0 0.0
2018-Jun-02 09:01N 37°48' W 122°27'0 0.0
2018-Jun-02 08:30N 37°48' W 122°27'0 0.0
2018-Jun-02 08:01N 37°48' W 122°27'0 0.0
2018-Jun-02 07:31N 37°48' W 122°27'0 0.0
2018-Jun-02 07:01N 37°48' W 122°27'0 0.0
2018-Jun-02 06:31N 37°48' W 122°27'0 0.0
2018-Jun-02 06:01N 37°48' W 122°27'0 0.0
2018-Jun-02 05:31N 37°48' W 122°27'0 0.0
2018-Jun-02 05:01N 37°48' W 122°27'0 0.0
2018-Jun-02 04:30N 37°48' W 122°27'0 0.0
2018-Jun-02 04:01N 37°48' W 122°27'0 0.0
2018-Jun-02 03:31N 37°48' W 122°27'0 0.0
2018-Jun-02 03:01N 37°48' W 122°27'0 0.0
2018-Jun-02 02:31N 37°48' W 122°27'0 0.0
2018-Jun-02 02:01N 37°48' W 122°27'0 0.0
2018-Jun-02 01:31N 37°48' W 122°27'0 0.0
2018-Jun-02 01:01N 37°48' W 122°27'0 0.0
2018-Jun-02 00:31N 37°48' W 122°27'0 0.0
2018-Jun-02 00:01N 37°48' W 122°27'0 0.2
2018-Jun-01 23:30N 37°48' W 122°27'0 0.0
2018-Jun-01 23:01N 37°48' W 122°27'4 7.0
2018-Jun-01 22:31N 37°52' W 122°25'510.0
2018-Jun-01 22:01N 37°57' W 122°26'12 9.1
2018-Jun-01 20:41N 38°04' W 122°13'1 1.3
2018-Jun-01 19:45N 38°03' W 122°12'510.0
2018-Jun-01 19:16N 38°03' W 122°18'3 9.8
2018-Jun-01 18:56N 38°01' W 122°22'510.6
2018-Jun-01 18:31N 37°58' W 122°26'510.1
2018-Jun-01 18:00N 37°53' W 122°25'5 9.4
2018-Jun-01 17:30N 37°48' W 122°26'0 0.6
2018-Jun-01 17:00N 37°48' W 122°27'0 0.0
2018-Jun-01 16:31N 37°48' W 122°27'0 0.0
2018-Jun-01 16:00N 37°48' W 122°27'0 0.0
2018-Jun-01 15:30N 37°48' W 122°27'0 0.0
2018-Jun-01 15:00N 37°48' W 122°27'  

Dump ship's entire track history